Free Soil, Michigan
Current Conditions -  °F | °C
As of 2:15 PM on Tuesday 21 Oct 2014 (Local Time) from KMBL Reporting Station
Scattered Clouds Scattered Clouds  
Wind Chill: 50°   Ceiling: Unl
Heat Index: 50°   Visibility: 10mi
Dew Point: 36°   Wind: 14mph
Humidity: 58%   Direction: 350°N
Pressure: 30.18"   Gusts: 18mph
Location:  44.11°N, 86.22°W
Report Text: KMBL 211815Z AUTO 35012G16KT 10SM SCT039 10/02 A3018 RMK AO1
Loading
Personal Weather Stations






























Interactive Weather Map
Tropical Storm Tracking
New forecast layout! Learn more

10-Day Weather Forecast

Advertisements
Track Severe Weather on mobile